Skjern, Denmark
Current Conditions -  °F | °C
As of 5:20 PM on Saturday 22 Nov 2014 (Local Time) from EKBI Reporting Station
Light Rain Light Rain  
Wind Chill: 35°   Ceiling: 1200
Heat Index: 41°   Visibility: 4mi
Dew Point: 39°   Wind: 10mph
Humidity: 93%   Direction: 110°ESE
Pressure: 30.15"   Gusts: NA
Location:  55.95°N, 8.5°E
Report Text: EKBI 221620Z 11009KT 7000 -RA BKN012 05/04 Q1021
Loading
Personal Weather Stations






























Interactive Weather Map New forecast layout! Learn more

10-Day Weather Forecast

Advertisements
Track Severe Weather on mobile